createdAt,value
2018-01-02T00:00:21.438Z,0.00
2018-01-02T00:01:21.428Z,0.00
2018-01-02T00:02:21.468Z,0.00
2018-01-02T00:03:21.525Z,0.00
2018-01-02T00:04:21.526Z,0.00
2018-01-02T00:05:21.556Z,0.00
2018-01-02T00:06:21.618Z,0.00
2018-01-02T00:07:21.628Z,0.00
2018-01-02T00:08:21.707Z,0.00
2018-01-02T00:09:21.725Z,0.00
2018-01-02T00:10:21.729Z,0.00
2018-01-02T00:11:21.752Z,0.00
2018-01-02T00:12:21.818Z,0.00
2018-01-02T00:13:21.819Z,0.00
2018-01-02T00:14:21.859Z,0.00
2018-01-02T00:15:21.921Z,0.00
2018-01-02T00:16:22.012Z,0.00
2018-01-02T00:17:21.950Z,0.00
2018-01-02T00:18:22.010Z,0.00
2018-01-02T00:19:22.008Z,0.00
2018-01-02T00:20:22.047Z,0.00
2018-01-02T00:21:22.089Z,0.00
2018-01-02T00:22:22.159Z,0.00
2018-01-02T00:23:22.137Z,0.00
2018-01-02T00:24:22.180Z,0.00
2018-01-02T00:25:22.248Z,0.00
2018-01-02T00:26:22.241Z,0.00
2018-01-02T00:27:22.280Z,0.00
2018-01-02T00:28:22.336Z,0.00
2018-01-02T00:29:22.337Z,0.00
2018-01-02T00:30:22.361Z,0.00
2018-01-02T00:31:22.439Z,0.00
2018-01-02T00:32:22.436Z,0.00
2018-01-02T00:33:22.459Z,0.00
2018-01-02T00:34:22.537Z,0.00
2018-01-02T00:35:22.527Z,0.00
2018-01-02T00:36:22.559Z,0.00
2018-01-02T00:37:22.632Z,0.00
2018-01-02T00:38:22.626Z,0.00
2018-01-02T00:39:23.246Z,0.00
2018-01-02T00:40:22.713Z,0.00
2018-01-02T00:41:22.713Z,0.00
2018-01-02T00:42:22.757Z,0.00
2018-01-02T00:43:22.821Z,0.00
2018-01-02T00:44:22.816Z,0.00
2018-01-02T00:45:22.860Z,0.00
2018-01-02T00:46:22.965Z,0.00
2018-01-02T00:47:22.915Z,0.00
2018-01-02T00:48:22.938Z,0.00
2018-01-02T00:49:23.006Z,0.00
2018-01-02T00:50:23.025Z,0.00
2018-01-02T00:51:23.054Z,0.00
2018-01-02T00:52:23.108Z,0.00
2018-01-02T00:53:23.110Z,0.00
2018-01-02T00:54:23.144Z,0.00
2018-01-02T00:55:23.202Z,4.00
2018-01-02T00:56:23.196Z,0.00
2018-01-02T00:57:23.242Z,4.00
2018-01-02T00:58:23.304Z,4.00
2018-01-02T00:59:23.326Z,4.00
2018-01-02T01:00:23.335Z,8.00
2018-01-02T01:01:23.432Z,8.00
2018-01-02T01:02:23.407Z,4.00
2018-01-02T01:03:23.450Z,8.00
2018-01-02T01:04:23.485Z,8.00
2018-01-02T01:05:23.534Z,8.00
2018-01-02T01:06:23.586Z,12.00
2018-01-02T01:07:23.612Z,16.00
2018-01-02T01:08:23.636Z,16.00
2018-01-02T01:09:23.687Z,20.00
2018-01-02T01:10:23.694Z,20.00
2018-01-02T01:11:23.730Z,20.00
2018-01-02T01:12:23.771Z,24.00
2018-01-02T01:13:23.790Z,28.00
2018-01-02T01:14:23.807Z,28.00
2018-01-02T01:15:23.884Z,32.00
2018-01-02T01:16:23.913Z,32.00
2018-01-02T01:17:23.918Z,36.00
2018-01-02T01:18:24.008Z,40.00
2018-01-02T01:19:23.997Z,40.00
2018-01-02T01:20:24.041Z,48.00
2018-01-02T01:21:24.122Z,52.00
2018-01-02T01:22:24.134Z,56.00
2018-01-02T01:23:24.131Z,60.00
2018-01-02T01:24:24.218Z,64.00
2018-01-02T01:25:24.202Z,68.00
2018-01-02T01:26:24.253Z,68.00
2018-01-02T01:27:24.299Z,72.00
2018-01-02T01:28:24.330Z,76.00
2018-01-02T01:29:24.350Z,84.00
2018-01-02T01:30:24.404Z,88.00
2018-01-02T01:31:24.397Z,92.00
2018-01-02T01:32:24.456Z,96.00
2018-01-02T01:33:24.573Z,104.00
2018-01-02T01:34:24.485Z,108.00
2018-01-02T01:35:24.517Z,108.00
2018-01-02T01:36:24.612Z,120.00
2018-01-02T01:37:24.585Z,124.00
2018-01-02T01:38:24.641Z,128.00
2018-01-02T01:39:24.699Z,132.00
2018-01-02T01:40:24.710Z,132.00
2018-01-02T01:41:24.740Z,140.00
2018-01-02T01:42:24.817Z,144.00
2018-01-02T01:43:24.785Z,148.00
2018-01-02T01:44:24.809Z,156.00
2018-01-02T01:45:24.881Z,160.00
2018-01-02T01:46:24.910Z,168.00
2018-01-02T01:47:24.933Z,168.00
2018-01-02T01:48:25.001Z,176.00
2018-01-02T01:49:24.987Z,184.00
2018-01-02T01:50:25.050Z,184.00
2018-01-02T01:51:25.097Z,192.00
2018-01-02T01:52:25.093Z,196.00
2018-01-02T01:53:25.167Z,200.00
2018-01-02T01:54:25.464Z,204.00
2018-01-02T01:55:25.177Z,212.00
2018-01-02T01:56:25.236Z,216.00
2018-01-02T01:57:25.279Z,220.00
2018-01-02T01:58:25.289Z,228.00
2018-01-02T01:59:25.301Z,232.00
2018-01-02T02:00:25.365Z,240.00
2018-01-02T02:01:25.387Z,244.00
2018-01-02T02:02:25.413Z,248.00
2018-01-02T02:03:25.472Z,256.00
2018-01-02T02:04:25.446Z,260.00
2018-01-02T02:05:25.491Z,264.00
2018-01-02T02:06:25.582Z,272.00
2018-01-02T02:07:25.588Z,276.00
2018-01-02T02:08:25.603Z,288.00
2018-01-02T02:09:25.688Z,296.00
2018-01-02T02:10:25.683Z,300.00
2018-01-02T02:11:25.710Z,312.00
2018-01-02T02:12:25.767Z,316.00
2018-01-02T02:13:25.763Z,324.00
2018-01-02T02:14:25.820Z,328.00
2018-01-02T02:15:25.839Z,332.00
2018-01-02T02:16:25.879Z,576.00
2018-01-02T02:17:25.897Z,588.00
2018-01-02T02:18:25.973Z,596.00
2018-01-02T02:19:25.955Z,608.00
2018-01-02T02:20:25.988Z,624.00
2018-01-02T02:21:26.054Z,636.00
2018-01-02T02:22:26.058Z,648.00
2018-01-02T02:23:26.104Z,660.00
2018-01-02T02:24:26.126Z,672.00
2018-01-02T02:25:26.177Z,676.00
2018-01-02T02:26:26.200Z,688.00
2018-01-02T02:27:26.236Z,704.00
2018-01-02T02:28:26.258Z,728.00
2018-01-02T02:29:26.279Z,736.00
2018-01-02T02:30:26.329Z,752.00
2018-01-02T02:31:26.363Z,764.00
2018-01-02T02:32:26.378Z,780.00
2018-01-02T02:33:26.436Z,796.00
2018-01-02T02:34:26.433Z,804.00
2018-01-02T02:35:26.462Z,816.00
2018-01-02T02:36:26.539Z,820.00
2018-01-02T02:37:26.550Z,832.00
2018-01-02T02:38:26.560Z,840.00
2018-01-02T02:39:26.634Z,848.00
2018-01-02T02:40:26.636Z,864.00
2018-01-02T02:41:26.628Z,880.00
2018-01-02T02:42:26.741Z,888.00
2018-01-02T02:43:26.709Z,908.00
2018-01-02T02:44:26.755Z,916.00
2018-01-02T02:45:26.815Z,928.00
2018-01-02T02:46:26.820Z,940.00
2018-01-02T02:47:26.860Z,948.00
2018-01-02T02:48:26.915Z,948.00
2018-01-02T02:49:26.881Z,952.00
2018-01-02T02:50:26.936Z,952.00
2018-01-02T02:51:26.983Z,964.00
2018-01-02T02:52:27.013Z,976.00
2018-01-02T02:53:27.063Z,984.00
2018-01-02T02:54:27.103Z,1000.00
2018-01-02T02:55:27.092Z,1012.00
2018-01-02T02:56:27.136Z,1040.00
2018-01-02T02:57:27.182Z,1060.00
2018-01-02T02:58:27.198Z,1076.00
2018-01-02T02:59:27.228Z,1084.00
2018-01-02T03:00:27.297Z,1096.00
2018-01-02T03:01:27.303Z,1116.00
2018-01-02T03:02:27.341Z,1148.00
2018-01-02T03:03:27.385Z,1164.00
2018-01-02T03:04:27.402Z,1192.00
2018-01-02T03:05:27.432Z,1216.00
2018-01-02T03:06:27.462Z,1236.00
2018-01-02T03:07:27.488Z,1256.00
2018-01-02T03:08:27.504Z,1260.00
2018-01-02T03:09:27.586Z,1260.00
2018-01-02T03:10:27.575Z,1256.00
2018-01-02T03:11:27.612Z,1268.00
2018-01-02T03:12:27.666Z,1272.00
2018-01-02T03:13:27.676Z,1284.00
2018-01-02T03:14:27.707Z,1284.00
2018-01-02T03:15:27.746Z,1280.00
2018-01-02T03:16:27.774Z,1296.00
2018-01-02T03:17:27.804Z,1304.00
2018-01-02T03:18:27.859Z,1316.00
2018-01-02T03:19:27.865Z,1324.00
2018-01-02T03:20:27.910Z,1324.00
2018-01-02T03:21:28.026Z,1336.00
2018-01-02T03:22:27.967Z,1364.00
2018-01-02T03:23:27.995Z,1376.00
2018-01-02T03:24:28.043Z,1380.00
2018-01-02T03:25:28.068Z,1392.00
2018-01-02T03:26:28.106Z,1396.00
2018-01-02T03:27:28.151Z,1416.00
2018-01-02T03:28:28.144Z,1440.00
2018-01-02T03:29:28.193Z,1464.00
2018-01-02T03:30:28.261Z,1468.00
2018-01-02T03:31:28.309Z,1472.00
2018-01-02T03:32:28.256Z,1488.00
2018-01-02T03:33:28.309Z,1512.00
2018-01-02T03:34:28.386Z,1540.00
2018-01-02T03:35:28.378Z,1988.00
2018-01-02T03:36:28.414Z,2012.00
2018-01-02T03:37:28.787Z,1980.00
2018-01-02T03:38:28.476Z,2024.00
2018-01-02T03:39:28.501Z,2016.00
2018-01-02T03:40:28.560Z,2068.00
2018-01-02T03:41:28.564Z,2100.00
2018-01-02T03:42:28.612Z,2120.00
2018-01-02T03:43:28.662Z,2120.00
2018-01-02T03:44:28.677Z,2112.00
2018-01-02T03:45:28.695Z,2136.00
2018-01-02T03:46:28.761Z,2140.00
2018-01-02T03:47:28.761Z,2156.00
2018-01-02T03:48:28.784Z,2156.00
2018-01-02T03:49:28.850Z,2148.00
2018-01-02T03:50:28.954Z,2112.00
2018-01-02T03:51:28.893Z,2096.00
2018-01-02T03:52:28.981Z,2104.00
2018-01-02T03:53:28.937Z,2128.00
2018-01-02T03:54:28.991Z,2128.00
2018-01-02T03:55:29.062Z,2132.00
2018-01-02T03:56:29.052Z,2140.00
2018-01-02T03:57:29.085Z,2156.00
2018-01-02T03:58:29.151Z,2188.00
2018-01-02T03:59:29.157Z,2196.00
2018-01-02T04:00:29.191Z,2220.00
2018-01-02T04:01:29.258Z,2252.00
2018-01-02T04:02:29.547Z,2276.00
2018-01-02T04:03:29.289Z,2288.00
2018-01-02T04:04:29.328Z,2284.00
2018-01-02T04:05:29.339Z,2316.00
2018-01-02T04:06:29.377Z,2296.00
2018-01-02T04:07:29.443Z,2316.00
2018-01-02T04:08:29.445Z,2296.00
2018-01-02T04:09:29.468Z,2316.00
2018-01-02T04:10:29.524Z,2324.00
2018-01-02T04:11:29.536Z,2304.00
2018-01-02T04:12:29.561Z,2352.00
2018-01-02T04:13:29.623Z,2368.00
2018-01-02T04:14:29.644Z,2380.00
2018-01-02T04:15:29.646Z,2424.00
2018-01-02T04:16:29.726Z,2468.00
2018-01-02T04:17:29.733Z,2488.00
2018-01-02T04:18:29.772Z,2520.00
2018-01-02T04:19:29.825Z,2520.00
2018-01-02T04:20:29.830Z,2540.00
2018-01-02T04:21:29.860Z,2536.00
2018-01-02T04:22:29.912Z,2544.00
2018-01-02T04:23:29.914Z,2544.00
2018-01-02T04:24:29.953Z,2580.00
2018-01-02T04:25:30.016Z,2604.00
2018-01-02T04:26:30.080Z,2640.00
2018-01-02T04:27:30.059Z,2672.00
2018-01-02T04:28:30.113Z,2684.00
2018-01-02T04:29:30.127Z,2688.00
2018-01-02T04:30:30.149Z,2700.00
2018-01-02T04:31:30.245Z,2756.00
2018-01-02T04:32:30.360Z,2796.00
2018-01-02T04:33:30.253Z,2716.00
2018-01-02T04:34:30.312Z,2696.00
2018-01-02T04:35:30.308Z,2720.00
2018-01-02T04:36:30.350Z,2736.00
2018-01-02T04:37:30.385Z,2732.00
2018-01-02T04:38:30.445Z,2748.00
2018-01-02T04:39:30.441Z,2696.00
2018-01-02T04:40:30.473Z,2652.00
2018-01-02T04:41:30.544Z,2700.00
2018-01-02T04:42:30.537Z,2704.00
2018-01-02T04:43:30.576Z,2740.00
2018-01-02T04:44:30.638Z,2788.00
2018-01-02T04:45:30.635Z,2752.00
2018-01-02T04:46:30.664Z,2716.00
2018-01-02T04:47:30.730Z,2776.00
2018-01-02T04:48:30.747Z,2836.00
2018-01-02T04:49:30.768Z,2824.00
2018-01-02T04:50:30.838Z,2848.00
2018-01-02T04:51:30.829Z,2828.00
2018-01-02T04:52:30.863Z,2820.00
2018-01-02T04:53:30.928Z,2824.00
2018-01-02T04:54:30.928Z,2824.00
2018-01-02T04:55:31.224Z,2832.00
2018-01-02T04:56:31.023Z,2868.00
2018-01-02T04:57:31.295Z,2860.00
2018-01-02T04:58:31.071Z,2844.00
2018-01-02T04:59:31.129Z,2988.00
2018-01-02T05:00:31.136Z,2956.00
2018-01-02T05:01:31.250Z,3016.00
2018-01-02T05:02:31.231Z,3116.00
2018-01-02T05:03:31.216Z,3176.00
2018-01-02T05:04:31.261Z,3092.00
2018-01-02T05:05:31.318Z,3124.00
2018-01-02T05:06:31.647Z,3220.00
2018-01-02T05:07:31.367Z,3212.00
2018-01-02T05:08:31.424Z,3236.00
2018-01-02T05:09:31.418Z,3096.00
2018-01-02T05:10:31.446Z,3212.00
2018-01-02T05:11:31.513Z,3272.00
2018-01-02T05:12:31.515Z,3272.00
2018-01-02T05:13:31.553Z,3360.00
2018-01-02T05:14:31.611Z,3440.00
2018-01-02T05:15:31.612Z,3308.00
2018-01-02T05:16:31.646Z,3356.00
2018-01-02T05:17:31.714Z,3336.00
2018-01-02T05:18:31.720Z,3408.00
2018-01-02T05:19:31.778Z,3520.00
2018-01-02T05:20:31.780Z,3460.00
2018-01-02T05:21:31.825Z,3488.00
2018-01-02T05:22:31.879Z,3552.00
2018-01-02T05:23:31.889Z,3624.00
2018-01-02T05:24:31.912Z,3596.00
2018-01-02T05:25:31.984Z,3588.00
2018-01-02T05:26:31.977Z,3668.00
2018-01-02T05:27:32.008Z,3692.00
2018-01-02T05:28:32.073Z,3812.00
2018-01-02T05:29:32.077Z,4200.00
2018-01-02T05:30:32.114Z,4576.00
2018-01-02T05:31:32.171Z,4928.00
2018-01-02T05:32:32.172Z,5240.00
2018-01-02T05:33:32.207Z,5580.00
2018-01-02T05:34:32.279Z,6052.00
2018-01-02T05:35:32.279Z,9084.00
2018-01-02T05:36:32.499Z,13064.00
2018-01-02T05:37:32.421Z,14244.00
2018-01-02T05:38:32.371Z,14312.00
2018-01-02T05:39:32.418Z,14260.00
2018-01-02T05:40:32.477Z,16128.00
2018-01-02T05:41:32.488Z,36000.00
2018-01-02T05:42:32.504Z,57184.00
2018-01-02T05:43:32.568Z,60640.00
2018-01-02T05:44:32.566Z,59488.00
2018-01-02T05:45:32.606Z,59968.00
2018-01-02T05:46:32.670Z,60544.00
2018-01-02T05:47:32.670Z,57408.00
2018-01-02T05:48:32.718Z,57152.00
2018-01-02T05:49:32.785Z,55584.00
2018-01-02T05:51:32.817Z,58272.00
2018-01-02T05:52:32.881Z,56896.00
2018-01-02T05:53:32.908Z,54016.00
2018-01-02T05:54:32.934Z,53664.00
2018-01-02T05:56:32.997Z,53408.00
2018-01-02T05:57:33.056Z,51488.00
2018-01-02T05:58:33.072Z,53408.00
2018-01-02T05:59:33.118Z,57920.00
2018-01-02T06:00:33.178Z,58304.00
2018-01-02T06:01:33.194Z,56960.00
2018-01-02T06:02:33.347Z,55072.00
2018-01-02T06:03:33.290Z,52064.00
2018-01-02T06:04:33.294Z,55648.00
2018-01-02T06:05:33.334Z,56512.00
2018-01-02T06:06:33.405Z,58240.00
2018-01-02T06:07:33.397Z,59776.00
2018-01-02T06:08:33.703Z,59456.00
2018-01-02T06:09:33.521Z,58944.00
2018-01-02T06:10:33.530Z,59776.00
2018-01-02T06:11:33.567Z,59360.00
2018-01-02T06:12:33.644Z,58048.00
2018-01-02T06:13:33.647Z,57408.00
2018-01-02T06:14:33.682Z,61344.00
2018-01-02T06:15:33.758Z,62560.00
2018-01-02T06:16:33.766Z,57312.00
2018-01-02T06:17:33.811Z,58336.00
2018-01-02T06:18:33.869Z,60064.00
2018-01-02T06:19:33.873Z,62944.00
2018-01-02T06:20:33.914Z,64064.00
2018-01-02T06:21:33.997Z,59904.00
2018-01-02T06:22:34.021Z,59424.00
2018-01-02T06:23:34.043Z,62272.00
2018-01-02T06:24:34.122Z,62944.00
2018-01-02T06:26:34.178Z,62720.00
2018-01-02T06:27:34.204Z,61568.00
2018-01-02T06:28:34.276Z,59776.00
2018-01-02T06:29:34.279Z,57984.00
2018-01-02T06:30:34.377Z,57280.00
2018-01-02T06:31:34.386Z,56320.00
2018-01-02T06:32:34.389Z,58176.00
2018-01-02T06:33:34.463Z,55296.00
2018-01-02T06:34:34.503Z,56512.00
2018-01-02T06:35:34.515Z,57376.00
2018-01-02T06:36:34.554Z,49632.00
2018-01-02T06:37:34.638Z,42208.00
2018-01-02T06:38:34.646Z,40736.00
2018-01-02T06:39:34.673Z,40544.00
2018-01-02T06:40:34.760Z,39648.00
2018-01-02T06:41:34.757Z,38336.00
2018-01-02T06:42:34.800Z,37760.00
2018-01-02T06:43:34.937Z,39424.00
2018-01-02T06:44:34.881Z,39232.00
2018-01-02T06:45:34.934Z,39040.00
2018-01-02T06:46:35.044Z,38720.00
2018-01-02T06:47:35.001Z,38496.00
2018-01-02T06:48:35.055Z,37184.00
2018-01-02T06:49:35.125Z,35744.00
2018-01-02T06:50:35.127Z,33664.00
2018-01-02T06:51:35.177Z,32768.00
2018-01-02T06:52:35.247Z,33824.00
2018-01-02T06:53:35.243Z,35552.00
2018-01-02T06:54:35.300Z,34560.00
2018-01-02T06:55:35.368Z,31520.00
2018-01-02T06:56:35.676Z,6752.00
2018-01-02T06:57:35.416Z,6688.00
2018-01-02T06:58:35.497Z,11948.00
2018-01-02T06:59:35.496Z,37504.00
2018-01-02T07:00:35.538Z,33056.00
2018-01-02T07:01:35.619Z,37472.00
2018-01-02T07:02:35.634Z,31872.00
2018-01-02T07:03:35.661Z,33344.00
2018-01-02T07:04:35.733Z,35104.00
2018-01-02T07:05:35.741Z,16128.00
2018-01-02T07:06:35.779Z,6792.00
2018-01-02T07:07:35.864Z,7288.00
2018-01-02T07:08:35.863Z,7636.00
2018-01-02T07:09:35.909Z,7904.00
2018-01-02T07:10:36.221Z,19360.00
2018-01-02T07:11:35.982Z,25280.00
2018-01-02T07:12:36.035Z,36352.00
2018-01-02T07:13:36.096Z,39488.00
2018-01-02T07:14:36.115Z,8520.00
2018-01-02T07:15:36.151Z,10112.00
2018-01-02T07:16:36.217Z,3528.00
2018-01-02T07:17:36.227Z,4100.00
2018-01-02T07:18:36.260Z,4988.00
2018-01-02T07:19:36.333Z,6720.00
2018-01-02T07:20:36.341Z,37088.00
2018-01-02T07:21:36.383Z,36928.00
2018-01-02T07:22:36.445Z,39680.00
2018-01-02T07:23:36.459Z,39904.00
2018-01-02T07:24:36.496Z,33696.00
2018-01-02T07:26:36.607Z,22112.00
2018-01-02T07:27:36.625Z,20704.00
2018-01-02T07:28:36.661Z,22624.00
2018-01-02T07:29:36.735Z,13712.00
2018-01-02T07:30:36.944Z,5092.00
2018-01-02T07:31:36.793Z,5040.00
2018-01-02T07:32:36.853Z,5216.00
2018-01-02T07:33:36.851Z,4980.00
2018-01-02T07:34:36.892Z,3384.00
2018-01-02T07:35:37.160Z,2972.00
2018-01-02T07:36:36.964Z,2836.00
2018-01-02T07:37:37.009Z,2740.00
2018-01-02T07:38:37.084Z,2620.00
2018-01-02T07:39:37.090Z,2804.00
2018-01-02T07:40:37.128Z,3120.00
2018-01-02T07:41:37.187Z,3544.00
2018-01-02T07:42:37.212Z,3992.00
2018-01-02T07:43:37.240Z,4380.00
2018-01-02T07:44:37.302Z,4328.00
2018-01-02T07:45:37.312Z,4276.00
2018-01-02T07:46:37.651Z,3872.00
2018-01-02T07:47:37.431Z,3956.00
2018-01-02T07:48:37.425Z,4200.00
2018-01-02T07:49:37.470Z,4196.00
2018-01-02T07:50:37.529Z,3788.00
2018-01-02T07:51:37.532Z,3444.00
2018-01-02T07:52:37.571Z,3328.00
2018-01-02T07:53:37.617Z,3620.00
2018-01-02T07:54:37.685Z,4136.00
2018-01-02T07:55:37.942Z,4248.00
2018-01-02T07:56:37.711Z,4624.00
2018-01-02T07:57:38.063Z,4660.00
2018-01-02T07:58:38.091Z,4680.00
2018-01-02T07:59:37.817Z,4296.00
2018-01-02T08:00:37.896Z,3972.00
2018-01-02T08:01:37.898Z,3580.00
2018-01-02T08:02:37.935Z,3736.00
2018-01-02T08:03:38.005Z,3680.00
2018-01-02T08:04:38.010Z,3284.00
2018-01-02T08:05:38.052Z,3304.00
2018-01-02T08:06:38.120Z,3188.00
2018-01-02T08:07:38.270Z,2920.00
2018-01-02T08:08:38.144Z,2932.00
2018-01-02T08:09:38.220Z,2996.00
2018-01-02T08:10:38.230Z,3072.00
2018-01-02T08:11:38.267Z,3308.00
2018-01-02T08:12:38.342Z,3492.00
2018-01-02T08:13:38.323Z,3528.00
2018-01-02T08:14:38.370Z,3564.00
2018-01-02T08:15:38.427Z,3608.00
2018-01-02T08:16:38.786Z,3452.00
2018-01-02T08:17:38.489Z,3168.00
2018-01-02T08:18:38.534Z,2956.00
2018-01-02T08:19:38.539Z,2772.00
2018-01-02T08:20:38.637Z,2780.00
2018-01-02T08:21:38.699Z,2644.00
2018-01-02T08:22:38.945Z,2512.00
2018-01-02T08:23:38.673Z,2596.00
2018-01-02T08:24:38.820Z,2740.00
2018-01-02T08:25:38.751Z,2720.00
2018-01-02T08:26:38.796Z,3012.00
2018-01-02T08:27:38.848Z,2964.00
2018-01-02T08:28:38.864Z,2736.00
2018-01-02T08:29:38.897Z,2624.00
2018-01-02T08:30:38.951Z,2460.00
2018-01-02T08:31:39.161Z,2216.00
2018-01-02T08:32:38.996Z,2136.00
2018-01-02T08:33:39.055Z,2164.00
2018-01-02T08:34:39.260Z,2300.00
2018-01-02T08:35:39.419Z,2456.00
2018-01-02T08:36:39.166Z,2556.00
2018-01-02T08:37:39.165Z,2588.00
2018-01-02T08:38:39.199Z,2504.00
2018-01-02T08:39:39.793Z,2468.00
2018-01-02T08:40:39.276Z,2388.00
2018-01-02T08:41:39.302Z,2348.00
2018-01-02T08:42:39.423Z,2164.00
2018-01-02T08:43:39.578Z,2124.00
2018-01-02T08:44:39.410Z,2164.00
2018-01-02T08:45:39.468Z,2228.00
2018-01-02T08:46:39.472Z,2344.00
2018-01-02T08:47:39.512Z,2276.00
2018-01-02T08:48:39.569Z,2208.00
2018-01-02T08:49:39.587Z,2040.00
2018-01-02T08:50:39.616Z,1948.00
2018-01-02T08:51:39.671Z,768.00
2018-01-02T08:52:39.677Z,736.00
2018-01-02T08:53:39.721Z,708.00
2018-01-02T08:54:39.804Z,704.00
2018-01-02T08:55:39.802Z,756.00
2018-01-02T08:56:39.847Z,868.00
2018-01-02T08:57:39.896Z,952.00
2018-01-02T08:58:39.973Z,1024.00
2018-01-02T09:00:40.005Z,940.00
2018-01-02T09:01:40.024Z,896.00
2018-01-02T09:02:40.190Z,872.00
2018-01-02T09:03:40.131Z,832.00
2018-01-02T09:04:40.170Z,844.00
2018-01-02T09:05:40.211Z,828.00
2018-01-02T09:06:40.222Z,776.00
2018-01-02T09:07:40.293Z,672.00
2018-01-02T09:08:40.330Z,596.00
2018-01-02T09:09:40.336Z,608.00
2018-01-02T09:10:40.364Z,608.00
2018-01-02T09:11:40.704Z,604.00
2018-01-02T09:12:40.407Z,664.00
2018-01-02T09:13:40.453Z,736.00
2018-01-02T09:14:40.522Z,760.00
2018-01-02T09:15:40.522Z,700.00
2018-01-02T09:16:40.533Z,652.00
2018-01-02T09:17:40.603Z,640.00
2018-01-02T09:18:40.610Z,636.00
2018-01-02T09:19:40.650Z,684.00
2018-01-02T09:20:40.735Z,640.00
2018-01-02T09:21:40.787Z,632.00
2018-01-02T09:22:40.796Z,608.00
2018-01-02T09:23:40.865Z,612.00
2018-01-02T09:24:40.852Z,572.00
2018-01-02T09:25:40.869Z,576.00
2018-01-02T09:26:40.944Z,620.00
2018-01-02T09:27:40.944Z,628.00
2018-01-02T09:28:40.963Z,672.00
2018-01-02T09:29:41.024Z,608.00
2018-01-02T09:30:41.017Z,580.00
2018-01-02T09:31:41.069Z,584.00
2018-01-02T09:32:41.120Z,568.00
2018-01-02T09:33:43.156Z,592.00
2018-01-02T09:34:41.197Z,608.00
2018-01-02T09:35:41.244Z,592.00
2018-01-02T09:36:41.377Z,552.00
2018-01-02T09:37:41.261Z,560.00
2018-01-02T09:38:41.320Z,564.00
2018-01-02T09:39:41.314Z,572.00
2018-01-02T09:40:41.412Z,548.00
2018-01-02T09:41:41.391Z,552.00
2018-01-02T09:42:41.433Z,592.00
2018-01-02T09:43:41.476Z,608.00
2018-01-02T09:44:41.509Z,640.00
2018-01-02T09:45:41.525Z,632.00
2018-01-02T09:46:41.589Z,636.00
2018-01-02T09:47:41.594Z,676.00
2018-01-02T09:48:41.624Z,684.00
2018-01-02T09:49:41.719Z,668.00
2018-01-02T09:50:41.740Z,644.00
2018-01-02T09:51:41.714Z,580.00
2018-01-02T09:52:42.024Z,476.00
2018-01-02T09:53:41.812Z,436.00
2018-01-02T09:54:41.860Z,416.00
2018-01-02T09:55:41.929Z,400.00
2018-01-02T09:56:41.944Z,376.00
2018-01-02T09:57:41.975Z,364.00
2018-01-02T09:58:42.025Z,340.00
2018-01-02T09:59:42.920Z,336.00
2018-01-02T10:00:43.289Z,332.00
2018-01-02T10:01:42.123Z,324.00
2018-01-02T10:02:42.117Z,332.00
2018-01-02T10:03:42.150Z,352.00
2018-01-02T10:04:42.229Z,348.00
2018-01-02T10:05:42.234Z,348.00
2018-01-02T10:06:42.288Z,320.00
2018-01-02T10:07:42.338Z,308.00
2018-01-02T10:08:42.353Z,296.00
2018-01-02T10:09:42.382Z,296.00
2018-01-02T10:10:42.446Z,300.00
2018-01-02T10:11:42.422Z,300.00
2018-01-02T10:12:42.468Z,296.00
2018-01-02T10:13:42.542Z,292.00
2018-01-02T10:14:42.537Z,284.00
2018-01-02T10:15:42.559Z,284.00
2018-01-02T10:16:42.653Z,280.00
2018-01-02T10:17:42.643Z,284.00
2018-01-02T10:18:42.668Z,288.00
2018-01-02T10:19:42.733Z,280.00
2018-01-02T10:20:42.694Z,272.00
2018-01-02T10:21:42.922Z,260.00
2018-01-02T10:22:42.822Z,260.00
2018-01-02T10:23:42.791Z,264.00
2018-01-02T10:24:42.847Z,256.00
2018-01-02T10:25:43.202Z,244.00
2018-01-02T10:26:42.918Z,240.00
2018-01-02T10:27:42.933Z,236.00
2018-01-02T10:28:43.013Z,232.00
2018-01-02T10:29:43.015Z,228.00
2018-01-02T10:30:43.054Z,220.00
2018-01-02T10:31:43.320Z,220.00
2018-01-02T10:32:43.105Z,216.00
2018-01-02T10:33:43.161Z,216.00
2018-01-02T10:34:43.418Z,212.00
2018-01-02T10:35:43.233Z,204.00
2018-01-02T10:36:43.240Z,204.00
2018-01-02T10:37:43.348Z,200.00
2018-01-02T10:38:43.354Z,192.00
2018-01-02T10:39:43.367Z,196.00
2018-01-02T10:40:43.427Z,192.00
2018-01-02T10:41:43.734Z,188.00
2018-01-02T10:42:43.464Z,184.00
2018-01-02T10:44:43.554Z,180.00
2018-01-02T10:45:43.569Z,176.00
2018-01-02T10:46:43.603Z,168.00
2018-01-02T10:47:43.660Z,168.00
2018-01-02T10:48:43.671Z,164.00
2018-01-02T10:49:43.698Z,160.00
2018-01-02T10:50:43.781Z,156.00
2018-01-02T10:51:44.000Z,152.00
2018-01-02T10:52:43.833Z,148.00
2018-01-02T10:53:43.883Z,148.00
2018-01-02T10:54:43.886Z,148.00
2018-01-02T10:55:43.892Z,144.00
2018-01-02T10:56:43.978Z,140.00
2018-01-02T10:57:43.991Z,136.00
2018-01-02T10:58:44.017Z,132.00
2018-01-02T10:59:44.089Z,132.00
2018-01-02T11:00:44.124Z,128.00
2018-01-02T11:01:44.122Z,124.00
2018-01-02T11:02:44.199Z,120.00
2018-01-02T11:03:44.196Z,116.00
2018-01-02T11:04:44.232Z,112.00
2018-01-02T11:05:44.307Z,112.00
2018-01-02T11:06:44.294Z,104.00
2018-01-02T11:07:44.322Z,100.00
2018-01-02T11:08:44.387Z,96.00
2018-01-02T11:09:44.649Z,92.00
2018-01-02T11:10:44.442Z,88.00
2018-01-02T11:11:44.474Z,88.00
2018-01-02T11:12:44.496Z,84.00
2018-01-02T11:13:44.536Z,80.00
2018-01-02T11:14:44.895Z,76.00
2018-01-02T11:15:44.598Z,72.00
2018-01-02T11:16:44.627Z,68.00
2018-01-02T11:17:44.707Z,68.00
2018-01-02T11:18:44.705Z,64.00
2018-01-02T11:19:44.737Z,64.00
2018-01-02T11:20:44.797Z,60.00
2018-01-02T11:21:44.803Z,56.00
2018-01-02T11:22:44.833Z,52.00
2018-01-02T11:23:44.896Z,48.00
2018-01-02T11:24:44.907Z,48.00
2018-01-02T11:25:44.925Z,44.00
2018-01-02T11:26:44.995Z,44.00
2018-01-02T11:27:45.006Z,40.00
2018-01-02T11:28:45.061Z,40.00
2018-01-02T11:29:45.120Z,36.00
2018-01-02T11:30:45.113Z,36.00
2018-01-02T11:31:45.145Z,32.00
2018-01-02T11:32:45.198Z,28.00
2018-01-02T11:33:45.201Z,28.00
2018-01-02T11:34:45.229Z,28.00
2018-01-02T11:35:45.298Z,24.00
2018-01-02T11:36:45.303Z,20.00
2018-01-02T11:37:45.328Z,20.00
2018-01-02T11:38:45.398Z,24.00
2018-01-02T11:39:45.393Z,20.00
2018-01-02T11:40:45.436Z,20.00
2018-01-02T11:41:45.503Z,16.00
2018-01-02T11:42:45.497Z,16.00
2018-01-02T11:43:45.548Z,12.00
2018-01-02T11:44:45.600Z,16.00
2018-01-02T11:45:45.598Z,12.00
2018-01-02T11:46:45.682Z,16.00
2018-01-02T11:47:45.704Z,12.00
2018-01-02T11:48:45.716Z,12.00
2018-01-02T11:49:45.762Z,12.00
2018-01-02T11:50:45.833Z,12.00
2018-01-02T11:51:45.816Z,12.00
2018-01-02T11:52:45.845Z,8.00
2018-01-02T11:53:45.894Z,12.00
2018-01-02T11:54:45.921Z,8.00
2018-01-02T11:55:45.943Z,8.00
2018-01-02T11:56:46.021Z,8.00
2018-01-02T11:57:46.030Z,12.00
2018-01-02T11:58:46.040Z,12.00
2018-01-02T11:59:46.108Z,12.00
2018-01-02T12:00:46.123Z,12.00
2018-01-02T12:01:46.147Z,12.00
2018-01-02T12:02:46.213Z,12.00
2018-01-02T12:03:46.221Z,12.00
2018-01-02T12:04:46.259Z,12.00
2018-01-02T12:05:46.314Z,12.00
2018-01-02T12:06:46.328Z,12.00
2018-01-02T12:07:46.363Z,12.00
2018-01-02T12:08:46.428Z,12.00
2018-01-02T12:09:46.422Z,12.00
2018-01-02T12:10:46.466Z,12.00
2018-01-02T12:11:46.691Z,12.00
2018-01-02T12:12:46.555Z,12.00
2018-01-02T12:13:46.561Z,12.00
2018-01-02T12:14:46.591Z,12.00
2018-01-02T12:15:46.657Z,12.00
2018-01-02T12:16:46.658Z,12.00
2018-01-02T12:17:46.716Z,12.00
2018-01-02T12:19:46.791Z,12.00
2018-01-02T12:20:46.805Z,12.00
2018-01-02T12:21:46.845Z,12.00
2018-01-02T12:22:46.894Z,12.00
2018-01-02T12:23:46.909Z,12.00
2018-01-02T12:24:46.944Z,12.00
2018-01-02T12:25:47.007Z,12.00
2018-01-02T12:26:47.005Z,12.00
2018-01-02T12:27:47.239Z,12.00
2018-01-02T12:28:47.101Z,12.00